Time;durP1;ratioP1;P1;durP2;ratioP2;P2;SDS_P1;SDS_P2;PMS_P1;PMS_P2;Temp;Humidity;BMP_temperature;BMP_pressure;BME280_temperature;BME280_humidity;BME280_pressure;Samples;Min_cycle;Max_cycle;Signal;HPM_P1;HPM_P2
2021/05/22 00:00:34;;;;;;;5.03;0.90;;;10.40;99.90;;;;;;12130950;28;20140;-81
2021/05/22 00:06:36;;;;;;;5.25;0.90;;;10.40;99.90;;;;;;12111199;28;20480;-80
2021/05/22 00:12:43;;;;;;;3.30;0.80;;;10.40;99.90;;;;;;12124563;28;20122;-82
2021/05/22 00:18:46;;;;;;;3.53;0.80;;;10.40;99.90;;;;;;12105018;28;20056;-79
2021/05/22 00:24:48;;;;;;;9.63;1.58;;;10.50;99.90;;;;;;12126080;28;20399;-80
2021/05/22 00:30:52;;;;;;;5.97;1.05;;;10.40;99.90;;;;;;12135710;28;20164;-82
2021/05/22 00:36:54;;;;;;;;;;;10.50;99.90;;;;;;12123355;28;20119;-79
2021/05/22 00:42:56;;;;;;;3.80;1.08;;;10.40;99.90;;;;;;12139671;28;19969;-80
2021/05/22 00:48:58;;;;;;;2.63;0.80;;;10.40;99.90;;;;;;12135986;28;20064;-81
2021/05/22 00:55:01;;;;;;;6.45;0.90;;;10.30;99.90;;;;;;12130941;28;20409;-80
2021/05/22 01:01:04;;;;;;;4.63;1.00;;;10.10;99.90;;;;;;12142075;28;20079;-80
2021/05/22 01:07:06;;;;;;;3.20;0.88;;;10.10;99.90;;;;;;12132896;28;20155;-81
2021/05/22 01:13:09;;;;;;;3.65;0.90;;;10.00;99.90;;;;;;12103423;28;20050;-80
2021/05/22 01:19:36;;;;;;;3.05;1.00;;;10.00;99.90;;;;;;12131736;28;20055;-80
2021/05/22 01:25:41;;;;;;;4.13;0.85;;;9.90;99.90;;;;;;12114606;28;20055;-81
2021/05/22 01:31:43;;;;;;;2.78;0.77;;;9.90;99.90;;;;;;12121504;28;20051;-81
2021/05/22 01:37:46;;;;;;;3.67;1.02;;;9.90;99.90;;;;;;12149936;28;20043;-81
2021/05/22 01:43:52;;;;;;;5.20;1.13;;;9.80;99.90;;;;;;12136281;28;20050;-81
2021/05/22 01:49:54;;;;;;;7.43;1.08;;;9.90;99.90;;;;;;12123656;28;20383;-81
2021/05/22 01:55:57;;;;;;;4.72;0.90;;;9.80;99.90;;;;;;12114117;28;20061;-80
2021/05/22 02:01:59;;;;;;;3.90;1.02;;;9.80;99.90;;;;;;12140189;28;20385;-80
2021/05/22 02:08:04;;;;;;;2.40;0.60;;;9.70;99.90;;;;;;12130279;28;20532;-81
2021/05/22 02:14:07;;;;;;;5.50;1.67;;;9.80;99.90;;;;;;12137197;28;20107;-82
2021/05/22 02:20:10;;;;;;;3.17;1.07;;;9.70;99.90;;;;;;12101004;28;20063;-81
2021/05/22 02:26:13;;;;;;;5.38;0.80;;;9.70;99.90;;;;;;12129508;28;21065;-81
2021/05/22 02:32:17;;;;;;;6.93;1.25;;;9.60;99.90;;;;;;12098727;28;20049;-82
2021/05/22 02:38:23;;;;;;;5.90;0.95;;;9.60;99.90;;;;;;12128395;28;20049;-80
2021/05/22 02:44:27;;;;;;;5.18;1.10;;;9.50;99.90;;;;;;12120703;28;20121;-80
2021/05/22 02:50:31;;;;;;;4.50;1.00;;;9.60;99.90;;;;;;12109583;28;20084;-81
2021/05/22 02:56:34;;;;;;;3.15;1.42;;;9.50;99.90;;;;;;12174984;28;20057;-80
2021/05/22 03:02:38;;;;;;;6.15;1.10;;;9.50;99.90;;;;;;12085508;28;20081;-81
2021/05/22 03:08:44;;;;;;;5.90;1.00;;;9.30;99.90;;;;;;12121913;28;20095;-81
2021/05/22 03:14:46;;;;;;;3.97;1.13;;;9.30;99.90;;;;;;12128403;28;20049;-81
2021/05/22 03:20:48;;;;;;;6.00;1.30;;;9.20;99.90;;;;;;12123867;28;20041;-80
2021/05/22 03:26:50;;;;;;;6.28;1.10;;;9.10;99.90;;;;;;12125387;28;20051;-81
2021/05/22 03:32:52;;;;;;;5.88;1.25;;;9.10;99.90;;;;;;12111692;28;20513;-80
2021/05/22 03:38:54;;;;;;;5.72;1.20;;;9.10;99.90;;;;;;12127041;28;20049;-81
2021/05/22 03:44:56;;;;;;;3.72;1.02;;;9.20;99.90;;;;;;12117962;28;20143;-81
2021/05/22 03:50:58;;;;;;;4.32;0.90;;;9.30;99.90;;;;;;12104429;28;20558;-80
2021/05/22 03:57:00;;;;;;;5.68;1.10;;;9.30;99.90;;;;;;12107428;28;20406;-82
2021/05/22 04:03:02;;;;;;;7.45;1.08;;;9.30;99.90;;;;;;12117184;28;20217;-81
2021/05/22 04:09:05;;;;;;;8.43;0.90;;;9.30;99.90;;;;;;12114937;28;20100;-79
2021/05/22 04:15:08;;;;;;;4.03;1.27;;;9.50;99.90;;;;;;12136235;28;20050;-81
2021/05/22 04:21:11;;;;;;;4.53;1.02;;;9.60;99.90;;;;;;12131237;28;20143;-82
2021/05/22 04:27:13;;;;;;;4.85;0.98;;;9.80;99.90;;;;;;12124370;28;20654;-81
2021/05/22 04:33:16;;;;;;;3.83;0.90;;;9.90;99.90;;;;;;12129647;28;20045;-81
2021/05/22 04:39:18;;;;;;;4.63;1.05;;;9.80;99.90;;;;;;12144170;28;20188;-82
2021/05/22 04:45:20;;;;;;;6.28;0.95;;;10.00;99.90;;;;;;12121459;28;20353;-82
2021/05/22 04:51:23;;;;;;;5.20;1.20;;;10.20;99.90;;;;;;12142427;28;20139;-81
2021/05/22 04:57:25;;;;;;;5.60;1.00;;;10.20;99.90;;;;;;12122071;28;20058;-81
2021/05/22 05:03:27;;;;;;;8.02;1.00;;;10.30;99.90;;;;;;12144891;28;20140;-81
2021/05/22 05:09:30;;;;;;;4.57;1.20;;;10.30;99.90;;;;;;12125546;28;20568;-81
2021/05/22 05:15:32;;;;;;;5.40;0.93;;;10.40;99.90;;;;;;12116725;28;20596;-81
2021/05/22 05:21:34;;;;;;;6.72;0.93;;;10.40;99.90;;;;;;12120751;28;20070;-81
2021/05/22 05:27:36;;;;;;;5.28;0.82;;;10.50;99.90;;;;;;12118607;28;20053;-82
2021/05/22 05:33:38;;;;;;;6.72;1.20;;;10.60;99.90;;;;;;12120912;28;20448;-80
2021/05/22 05:39:40;;;;;;;6.32;1.02;;;10.70;99.90;;;;;;12120449;28;20060;-81
2021/05/22 05:45:42;;;;;;;5.22;1.15;;;10.80;99.90;;;;;;12095984;28;20080;-80
2021/05/22 05:51:44;;;;;;;6.65;1.30;;;10.90;99.90;;;;;;12127592;28;20136;-81
2021/05/22 05:57:47;;;;;;;4.10;1.02;;;11.10;99.90;;;;;;12123161;28;20365;-81
2021/05/22 06:03:49;;;;;;;4.53;1.10;;;11.10;99.90;;;;;;12128377;28;20050;-81
2021/05/22 06:09:51;;;;;;;10.23;1.20;;;11.00;99.90;;;;;;12121604;28;20058;-81
2021/05/22 06:16:12;;;;;;;5.80;1.10;;;11.00;99.90;;;;;;12126085;28;20038;-81
2021/05/22 06:22:14;;;;;;;5.10;1.15;;;11.00;99.90;;;;;;12120699;28;20041;-79
2021/05/22 06:28:16;;;;;;;6.88;1.33;;;11.10;99.90;;;;;;12112792;28;20057;-81
2021/05/22 06:34:18;;;;;;;6.78;1.33;;;11.00;99.90;;;;;;12126327;28;20564;-83
2021/05/22 06:40:20;;;;;;;9.25;1.80;;;10.90;99.90;;;;;;12115041;28;20060;-82
2021/05/22 06:52:23;;;;;;;6.15;1.23;;;10.90;99.90;;;;;;12120675;28;20061;-81
2021/05/22 06:58:26;;;;;;;7.10;1.13;;;11.30;99.90;;;;;;12131939;28;20420;-81
2021/05/22 07:04:28;;;;;;;8.85;1.23;;;11.60;99.90;;;;;;12122132;28;20048;-79
2021/05/22 07:10:31;;;;;;;4.70;1.20;;;11.60;99.90;;;;;;12192980;28;20068;-80
2021/05/22 07:16:33;;;;;;;5.82;1.13;;;11.70;99.90;;;;;;12107271;28;20093;-79
2021/05/22 07:22:35;;;;;;;5.93;1.00;;;11.90;99.90;;;;;;12116806;28;20592;-82
2021/05/22 07:28:37;;;;;;;3.88;1.00;;;11.70;99.90;;;;;;12119003;28;20096;-80
2021/05/22 07:34:39;;;;;;;6.95;1.20;;;11.30;99.90;;;;;;12122272;28;20055;-81
2021/05/22 07:40:41;;;;;;;4.78;1.08;;;11.00;99.90;;;;;;12116428;28;20427;-80
2021/05/22 07:46:43;;;;;;;5.78;1.00;;;10.70;99.90;;;;;;12132144;28;20095;-80
2021/05/22 07:52:44;;;;;;;9.25;1.40;;;10.40;99.90;;;;;;12101708;28;20175;-79
2021/05/22 07:58:47;;;;;;;6.80;1.27;;;10.20;99.90;;;;;;12107113;28;20446;-78
2021/05/22 08:04:49;;;;;;;6.03;1.05;;;10.10;99.90;;;;;;12114157;28;20557;-81
2021/05/22 08:10:51;;;;;;;7.28;1.48;;;9.90;99.90;;;;;;12112910;28;20053;-79
2021/05/22 08:16:53;;;;;;;5.90;1.20;;;10.00;99.90;;;;;;12104423;28;20068;-79
2021/05/22 08:22:55;;;;;;;5.15;1.25;;;10.10;99.90;;;;;;12118629;28;20069;-77
2021/05/22 08:28:58;;;;;;;6.25;1.35;;;10.10;99.90;;;;;;12128298;28;20065;-77
2021/05/22 08:35:00;;;;;;;6.60;1.23;;;10.10;99.90;;;;;;12096717;28;20136;-79
2021/05/22 08:41:04;;;;;;;5.97;1.45;;;10.00;99.90;;;;;;12122056;28;20121;-80
2021/05/22 08:47:06;;;;;;;8.88;1.55;;;9.90;99.90;;;;;;12100923;28;20060;-79
2021/05/22 08:53:08;;;;;;;6.25;1.40;;;10.00;99.90;;;;;;12116425;28;20300;-80
2021/05/22 08:59:11;;;;;;;2.95;0.98;;;10.00;99.90;;;;;;12110667;28;20064;-80
2021/05/22 09:05:25;;;;;;;3.13;1.02;;;10.00;99.90;;;;;;12131858;28;20049;-79
2021/05/22 09:11:27;;;;;;;3.60;1.07;;;10.10;99.90;;;;;;12113896;28;20049;-79
2021/05/22 09:17:29;;;;;;;4.72;1.10;;;10.00;99.90;;;;;;12098421;28;20049;-80
2021/05/22 09:23:39;;;;;;;4.80;1.08;;;10.10;99.90;;;;;;12099948;28;20045;-78
2021/05/22 09:29:43;;;;;;;3.13;0.80;;;10.00;99.90;;;;;;12123488;28;20070;-81
2021/05/22 09:35:51;;;;;;;1.83;0.60;;;10.10;99.90;;;;;;12123873;28;20610;-80
2021/05/22 09:42:03;;;;;;;4.15;0.70;;;10.10;99.90;;;;;;12120952;28;20414;-80
2021/05/22 09:48:21;;;;;;;3.65;0.63;;;10.10;99.90;;;;;;12112591;28;20171;-81
2021/05/22 09:54:54;;;;;;;2.83;0.73;;;10.20;99.90;;;;;;12116130;28;20073;-83
2021/05/22 10:00:58;;;;;;;1.45;0.55;;;10.40;99.90;;;;;;12139208;28;21361;-80
2021/05/22 10:07:00;;;;;;;2.63;0.70;;;10.50;99.90;;;;;;12101655;28;20060;-79
2021/05/22 10:13:04;;;;;;;4.20;0.60;;;10.80;99.90;;;;;;12117122;28;20059;-82
2021/05/22 10:19:06;;;;;;;;;;;10.90;99.90;;;;;;12118706;28;20054;-80
2021/05/22 10:25:09;;;;;;;1.77;0.70;;;10.80;99.90;;;;;;12136193;28;20352;-78
2021/05/22 10:31:11;;;;;;;5.18;0.73;;;10.50;99.90;;;;;;12120707;28;20488;-81
2021/05/22 10:37:36;;;;;;;1.05;0.70;;;10.40;99.90;;;;;;12126548;28;20138;-80
2021/05/22 10:43:52;;;;;;;2.78;0.80;;;10.30;99.90;;;;;;12126821;28;20126;-81
2021/05/22 10:49:59;;;;;;;2.25;0.70;;;10.20;99.90;;;;;;12126404;28;20770;-81
2021/05/22 10:56:26;;;;;;;1.58;0.60;;;10.30;99.90;;;;;;12134466;28;20070;-83
2021/05/22 11:02:35;;;;;;;2.10;0.63;;;10.30;99.90;;;;;;12114055;28;20091;-80
2021/05/22 11:08:39;;;;;;;2.67;0.80;;;10.30;99.90;;;;;;12124449;28;20063;-80
2021/05/22 11:14:53;;;;;;;3.38;0.70;;;10.30;99.90;;;;;;12108900;28;20061;-80
2021/05/22 11:21:17;;;;;;;3.60;0.88;;;10.20;99.90;;;;;;12142196;28;20073;-80
2021/05/22 11:27:43;;;;;;;5.25;1.08;;;10.20;99.90;;;;;;12114318;28;20060;-80
2021/05/22 11:33:45;;;;;;;2.80;0.80;;;10.20;99.90;;;;;;12118913;28;20089;-79
2021/05/22 11:39:47;;;;;;;3.85;0.98;;;10.30;99.90;;;;;;12116544;28;20105;-79
2021/05/22 11:45:54;;;;;;;3.55;1.13;;;10.50;99.90;;;;;;12115391;28;20802;-80
2021/05/22 11:51:55;;;;;;;3.88;1.17;;;10.60;99.90;;;;;;12131005;28;20056;-79
2021/05/22 11:58:11;;;;;;;4.80;1.15;;;10.70;99.90;;;;;;12097358;28;20080;-79
2021/05/22 12:04:15;;;;;;;8.70;1.30;;;10.60;99.90;;;;;;12093042;28;20092;-84
2021/05/22 12:10:18;;;;;;;3.88;1.27;;;10.60;99.90;;;;;;12121648;28;20064;-80
2021/05/22 12:16:21;;;;;;;3.53;1.20;;;10.60;99.90;;;;;;12105498;28;20076;-78
2021/05/22 12:22:29;;;;;;;4.87;1.87;;;10.70;99.90;;;;;;12106645;28;20073;-81
2021/05/22 12:28:32;;;;;;;2.67;1.30;;;10.60;99.90;;;;;;12144609;28;20072;-80
2021/05/22 12:34:38;;;;;;;3.53;1.42;;;10.90;99.90;;;;;;12120045;28;20057;-81
2021/05/22 12:40:53;;;;;;;5.53;1.30;;;11.10;99.90;;;;;;12115530;28;20108;-79
2021/05/22 12:46:57;;;;;;;3.85;1.55;;;11.20;99.90;;;;;;12107955;28;20116;-79
2021/05/22 12:53:04;;;;;;;3.67;1.38;;;11.30;99.90;;;;;;12117550;28;20069;-79
2021/05/22 12:59:13;;;;;;;2.17;0.98;;;11.70;99.90;;;;;;12108614;28;20073;-80
2021/05/22 13:05:17;;;;;;;3.45;1.40;;;12.20;99.90;;;;;;12123995;28;20046;-80
2021/05/22 13:11:19;;;;;;;4.07;1.30;;;12.20;99.90;;;;;;12114796;28;20665;-81
2021/05/22 13:17:21;;;;;;;2.75;1.10;;;11.80;99.90;;;;;;12116662;28;20530;-80
2021/05/22 13:23:25;;;;;;;2.85;1.13;;;11.60;99.90;;;;;;12120405;28;20049;-80
2021/05/22 13:29:27;;;;;;;4.97;1.35;;;11.60;99.90;;;;;;12111962;28;20123;-82
2021/05/22 13:35:30;;;;;;;3.25;1.20;;;11.40;99.90;;;;;;12118860;28;20083;-80
2021/05/22 13:41:44;;;;;;;3.05;1.30;;;11.40;99.90;;;;;;12130958;28;20049;-79
2021/05/22 13:47:46;;;;;;;7.30;1.33;;;11.40;99.90;;;;;;12133909;28;20581;-81
2021/05/22 13:53:48;;;;;;;5.18;1.40;;;11.20;99.90;;;;;;12116478;28;20676;-82
2021/05/22 13:59:50;;;;;;;4.30;1.48;;;11.10;99.90;;;;;;12137509;28;20045;-80
2021/05/22 14:05:52;;;;;;;5.55;1.58;;;11.00;99.90;;;;;;12103298;28;20081;-80
2021/05/22 14:11:54;;;;;;;5.30;1.65;;;10.90;99.90;;;;;;12129067;28;20047;-80
2021/05/22 14:17:58;;;;;;;4.07;1.70;;;10.90;99.90;;;;;;12132440;28;20082;-82
2021/05/22 14:24:00;;;;;;;4.90;2.03;;;10.80;99.90;;;;;;12134722;28;20103;-80
2021/05/22 14:30:04;;;;;;;6.32;1.98;;;10.80;99.90;;;;;;12134683;28;20065;-81
2021/05/22 14:36:08;;;;;;;4.03;1.65;;;10.70;99.90;;;;;;12124613;28;20112;-81
2021/05/22 14:42:10;;;;;;;5.07;1.83;;;10.80;99.90;;;;;;12104983;28;20429;-82
2021/05/22 14:48:12;;;;;;;4.90;1.73;;;10.70;99.90;;;;;;12126473;28;20057;-81
2021/05/22 14:54:14;;;;;;;5.10;1.83;;;10.70;99.90;;;;;;12135419;28;20068;-83
2021/05/22 15:00:23;;;;;;;5.85;1.98;;;10.70;99.90;;;;;;12106081;28;20079;-85
2021/05/22 15:06:25;;;;;;;8.65;2.42;;;10.60;99.90;;;;;;12138663;28;20387;-81
2021/05/22 15:12:27;;;;;;;6.97;2.60;;;10.60;99.90;;;;;;12122618;28;20073;-82
2021/05/22 15:18:30;;;;;;;7.40;3.05;;;10.80;99.90;;;;;;12106016;28;20103;-80
2021/05/22 15:24:32;;;;;;;57.88;39.13;;;10.60;99.90;;;;;;12124751;28;20046;-81
2021/05/22 15:30:34;;;;;;;9.93;3.17;;;10.60;99.90;;;;;;12096563;28;20059;-80
2021/05/22 15:36:36;;;;;;;6.05;3.03;;;10.60;99.90;;;;;;12127463;28;20116;-79
2021/05/22 15:42:38;;;;;;;8.00;2.67;;;10.50;99.90;;;;;;12128742;28;20493;-81
2021/05/22 16:07:07;;;;;;;3.20;2.08;;;10.70;99.90;;;;;;12121338;28;20127;-81
2021/05/22 16:13:09;;;;;;;4.70;2.17;;;10.90;99.90;;;;;;12138992;28;20045;-79
2021/05/22 16:19:12;;;;;;;4.35;2.40;;;10.90;99.90;;;;;;12113006;28;20053;-81
2021/05/22 16:25:14;;;;;;;4.90;2.53;;;11.00;99.90;;;;;;12111663;28;20469;-80
2021/05/22 16:31:16;;;;;;;3.50;2.67;;;10.70;99.90;;;;;;12124116;28;20051;-79
2021/05/22 16:37:22;;;;;;;5.35;2.90;;;10.70;99.90;;;;;;12121359;28;20516;-81
2021/05/22 16:43:24;;;;;;;4.75;2.90;;;10.90;99.90;;;;;;12117041;28;20056;-81
2021/05/22 16:49:26;;;;;;;6.63;2.70;;;10.90;99.90;;;;;;12131109;28;20060;-81
2021/05/22 16:55:28;;;;;;;7.50;3.45;;;11.10;99.90;;;;;;12088271;28;20057;-80
2021/05/22 17:01:31;;;;;;;6.00;3.67;;;11.00;99.90;;;;;;12090329;28;20076;-81
2021/05/22 17:07:33;;;;;;;7.50;3.35;;;11.20;99.90;;;;;;12114616;28;20067;-83
2021/05/22 17:13:34;;;;;;;6.10;3.55;;;11.10;99.90;;;;;;12112700;28;20053;-81
2021/05/22 17:19:36;;;;;;;6.28;3.00;;;10.90;99.90;;;;;;12113817;28;20494;-82
2021/05/22 17:25:38;;;;;;;4.45;2.95;;;10.90;99.90;;;;;;12145724;28;20205;-81
2021/05/22 17:31:40;;;;;;;8.85;3.40;;;10.90;99.90;;;;;;12129546;28;20155;-80
2021/05/22 17:37:42;;;;;;;5.95;3.83;;;10.80;99.90;;;;;;12113504;28;20053;-81
2021/05/22 17:43:44;;;;;;;5.35;3.83;;;10.70;99.90;;;;;;12134421;28;20069;-84
2021/05/22 17:49:46;;;;;;;6.38;4.18;;;10.80;99.90;;;;;;12136888;28;20137;-79
2021/05/22 17:55:50;;;;;;;5.95;3.97;;;10.70;99.90;;;;;;12115825;28;20199;-80
2021/05/22 18:01:51;;;;;;;6.33;4.07;;;10.70;99.90;;;;;;12128256;28;20042;-81
2021/05/22 18:07:54;;;;;;;7.75;4.05;;;10.70;99.90;;;;;;12129211;28;20610;-81
2021/05/22 18:13:55;;;;;;;6.38;4.28;;;10.80;99.90;;;;;;12127580;28;20537;-80
2021/05/22 18:19:57;;;;;;;7.35;4.63;;;10.70;99.90;;;;;;12122443;28;20049;-80
2021/05/22 18:25:59;;;;;;;7.43;4.70;;;10.70;99.90;;;;;;12117060;28;20045;-81
2021/05/22 18:32:01;;;;;;;6.63;5.30;;;10.70;99.90;;;;;;12140018;28;20047;-81
2021/05/22 18:38:04;;;;;;;7.30;5.85;;;10.80;99.90;;;;;;12125015;28;20136;-81
2021/05/22 18:44:06;;;;;;;8.48;6.00;;;10.70;99.90;;;;;;12087755;28;20095;-80
2021/05/22 18:50:10;;;;;;;10.48;6.93;;;10.50;99.90;;;;;;12115486;28;20062;-81
2021/05/22 18:56:12;;;;;;;7.93;6.57;;;10.50;99.90;;;;;;12113721;28;20064;-79
2021/05/22 19:02:20;;;;;;;8.50;6.75;;;10.40;99.90;;;;;;12109213;28;20067;-80
2021/05/22 19:08:22;;;;;;;9.38;6.80;;;10.30;99.90;;;;;;12112852;28;20065;-81
2021/05/22 19:14:25;;;;;;;9.82;7.00;;;10.10;99.90;;;;;;12114192;28;20049;-80
2021/05/22 19:20:27;;;;;;;9.00;6.60;;;10.10;99.90;;;;;;12126204;28;20230;-80
2021/05/22 19:26:29;;;;;;;9.02;6.60;;;10.00;99.90;;;;;;12116360;28;20140;-81
2021/05/22 19:32:32;;;;;;;7.85;6.47;;;10.00;99.90;;;;;;12120410;28;20475;-82
2021/05/22 19:38:35;;;;;;;10.55;6.53;;;10.10;99.90;;;;;;12125038;28;20046;-80
2021/05/22 19:44:36;;;;;;;9.93;7.10;;;10.30;99.90;;;;;;12136258;28;20047;-81
2021/05/22 19:50:39;;;;;;;10.10;6.50;;;10.20;99.90;;;;;;12124177;28;20049;-82
2021/05/22 19:56:41;;;;;;;12.50;7.25;;;10.20;99.90;;;;;;12129127;28;20134;-82
2021/05/22 20:02:45;;;;;;;9.43;7.47;;;10.00;99.90;;;;;;12120215;28;20045;-82
2021/05/22 20:08:46;;;;;;;12.55;8.80;;;9.90;99.90;;;;;;12124571;28;20177;-81
2021/05/22 20:14:48;;;;;;;11.35;8.45;;;9.80;99.90;;;;;;12120063;28;20047;-82
2021/05/22 20:20:52;;;;;;;14.07;9.30;;;9.80;99.90;;;;;;12123380;28;20064;-80
2021/05/22 20:26:54;;;;;;;10.98;8.77;;;9.90;99.90;;;;;;12119566;28;20672;-81
2021/05/22 20:32:56;;;;;;;13.65;9.98;;;9.90;99.90;;;;;;12121159;28;20140;-81
2021/05/22 20:38:58;;;;;;;14.48;11.38;;;9.90;99.90;;;;;;12116824;28;20057;-80
2021/05/22 20:45:01;;;;;;;13.07;11.70;;;9.90;99.90;;;;;;12113770;28;20488;-81
2021/05/22 20:51:04;;;;;;;13.00;11.65;;;9.90;99.90;;;;;;12121893;28;20047;-80
2021/05/22 20:57:05;;;;;;;14.10;12.63;;;9.90;99.90;;;;;;12116102;28;20053;-80
2021/05/22 21:03:08;;;;;;;14.50;12.98;;;9.90;99.90;;;;;;12120668;28;20044;-81
2021/05/22 21:09:10;;;;;;;17.85;13.98;;;9.80;99.90;;;;;;12119213;28;20061;-82
2021/05/22 21:15:13;;;;;;;18.88;15.43;;;9.70;99.90;;;;;;12133140;28;20093;-81
2021/05/22 21:21:16;;;;;;;21.45;17.35;;;9.70;99.90;;;;;;12128312;28;20083;-80
2021/05/22 21:27:17;;;;;;;23.92;17.90;;;9.80;99.90;;;;;;12112051;28;20084;-80
2021/05/22 21:33:19;;;;;;;21.63;17.48;;;9.90;99.90;;;;;;12129550;28;20454;-81
2021/05/22 21:39:21;;;;;;;21.50;17.55;;;9.90;99.90;;;;;;12126356;28;20136;-81
2021/05/22 21:45:23;;;;;;;20.90;16.58;;;9.90;99.90;;;;;;12116031;28;20059;-80
2021/05/22 21:51:26;;;;;;;21.80;16.73;;;10.00;99.90;;;;;;12132981;28;20101;-81
2021/05/22 21:57:28;;;;;;;17.65;14.73;;;10.00;99.90;;;;;;12143398;28;20049;-81
2021/05/22 22:03:33;;;;;;;17.67;15.00;;;9.90;99.90;;;;;;12134870;28;20495;-79
2021/05/22 22:09:35;;;;;;;14.57;12.43;;;9.90;99.90;;;;;;12122587;28;20052;-80
2021/05/22 22:15:38;;;;;;;13.18;11.27;;;9.80;99.90;;;;;;12123186;28;20064;-80
2021/05/22 22:21:40;;;;;;;12.90;9.95;;;9.80;99.90;;;;;;12124035;28;20560;-81
2021/05/22 22:27:42;;;;;;;12.88;11.13;;;9.70;99.90;;;;;;12123563;28;20438;-79
2021/05/22 22:33:44;;;;;;;14.98;10.93;;;9.70;99.90;;;;;;12120446;28;20049;-80
2021/05/22 22:39:46;;;;;;;13.73;11.02;;;9.70;99.90;;;;;;12124603;28;20373;-79
2021/05/22 22:45:49;;;;;;;16.75;10.18;;;9.70;99.90;;;;;;12108012;28;20049;-80
2021/05/22 22:51:51;;;;;;;12.95;10.05;;;9.70;99.90;;;;;;12119185;28;20058;-79
2021/05/22 22:57:53;;;;;;;13.30;10.23;;;9.60;99.90;;;;;;12114903;28;20416;-80
2021/05/22 23:03:55;;;;;;;11.65;9.48;;;9.60;99.90;;;;;;12143502;28;20053;-81
2021/05/22 23:09:57;;;;;;;12.23;11.02;;;9.60;99.90;;;;;;12139274;28;20120;-80
2021/05/22 23:15:59;;;;;;;14.82;10.43;;;9.50;99.90;;;;;;12130498;28;20052;-80
2021/05/22 23:22:01;;;;;;;13.07;11.45;;;9.50;99.90;;;;;;12128744;28;20045;-80
2021/05/22 23:28:04;;;;;;;16.60;11.65;;;9.50;99.90;;;;;;12115559;28;20089;-80
2021/05/22 23:34:06;;;;;;;13.10;10.45;;;9.50;99.90;;;;;;12128158;28;20043;-79
2021/05/22 23:40:10;;;;;;;12.27;9.70;;;9.50;99.90;;;;;;12124878;28;20352;-80
2021/05/22 23:46:12;;;;;;;13.80;10.32;;;9.40;99.90;;;;;;12134656;28;20539;-80
2021/05/22 23:52:16;;;;;;;11.98;10.70;;;9.40;99.90;;;;;;12092685;28;20324;-79
2021/05/22 23:58:18;;;;;;;15.30;10.60;;;9.40;99.90;;;;;;12129253;28;20070;-82
